createdAt,value
2019-03-18T00:02:22.160Z,68.70
2019-03-18T00:04:50.227Z,66.97
2019-03-18T00:07:18.197Z,66.10
2019-03-18T00:09:46.177Z,66.67
2019-03-18T00:12:14.120Z,66.00
2019-03-18T00:14:42.128Z,65.50
2019-03-18T00:17:10.065Z,66.20
2019-03-18T00:19:38.144Z,66.07
2019-03-18T00:22:06.197Z,66.67
2019-03-18T00:24:34.193Z,69.27
2019-03-18T00:27:02.129Z,67.17
2019-03-18T00:29:30.168Z,65.97
2019-03-18T00:31:58.227Z,66.87
2019-03-18T00:34:26.291Z,65.30
2019-03-18T00:36:54.350Z,65.30
2019-03-18T00:39:22.377Z,65.30
2019-03-18T00:41:50.366Z,65.87
2019-03-18T00:44:18.722Z,65.10
2019-03-18T00:46:46.746Z,65.87
2019-03-18T00:49:14.700Z,65.67
2019-03-18T00:51:42.753Z,64.97
2019-03-18T00:54:10.833Z,67.73
2019-03-18T00:56:38.909Z,65.63
2019-03-18T00:59:06.997Z,65.27
2019-03-18T01:01:35.037Z,65.40
2019-03-18T01:04:03.109Z,64.90
2019-03-18T01:06:31.107Z,66.27
2019-03-18T01:08:59.204Z,65.07
2019-03-18T01:11:27.211Z,64.83
2019-03-18T01:13:55.203Z,65.10
2019-03-18T01:16:23.263Z,64.97
2019-03-18T01:18:51.213Z,65.60
2019-03-18T01:21:19.208Z,65.67
2019-03-18T01:23:47.146Z,65.30
2019-03-18T01:26:15.152Z,64.77
2019-03-18T01:28:43.230Z,65.00
2019-03-18T01:31:11.293Z,65.53
2019-03-18T01:33:40.276Z,65.17
2019-03-18T01:36:08.248Z,65.67
2019-03-18T01:38:36.319Z,65.13
2019-03-18T01:41:04.373Z,65.67
2019-03-18T01:43:32.366Z,64.80
2019-03-18T01:46:00.424Z,65.10
2019-03-18T01:48:28.395Z,64.87
2019-03-18T01:50:56.331Z,64.87
2019-03-18T01:53:24.212Z,64.83
2019-03-18T01:55:52.195Z,66.70
2019-03-18T01:58:20.139Z,64.83
2019-03-18T02:00:48.053Z,64.93
2019-03-18T02:03:16.004Z,65.20
2019-03-18T02:05:43.970Z,65.47
2019-03-18T02:08:12.048Z,65.00
2019-03-18T02:10:40.112Z,64.87
2019-03-18T02:13:08.099Z,64.80
2019-03-18T02:15:36.186Z,66.53
2019-03-18T02:18:04.259Z,65.30
2019-03-18T02:20:32.319Z,70.00
2019-03-18T02:23:00.391Z,66.20
2019-03-18T02:25:28.426Z,65.30
2019-03-18T02:27:56.402Z,65.67
2019-03-18T02:30:24.391Z,66.00
2019-03-18T02:32:52.462Z,65.50
2019-03-18T02:35:20.552Z,65.33
2019-03-18T02:37:48.579Z,65.83
2019-03-18T02:40:16.596Z,65.20
2019-03-18T02:42:44.669Z,65.60
2019-03-18T02:45:12.750Z,66.10
2019-03-18T02:47:40.791Z,66.00
2019-03-18T02:50:08.904Z,65.37
2019-03-18T02:52:36.850Z,69.40
2019-03-18T02:55:04.931Z,65.50
2019-03-18T02:57:32.958Z,65.30
2019-03-18T03:00:00.974Z,66.40
2019-03-18T03:02:28.991Z,65.17
2019-03-18T03:04:56.959Z,65.53
2019-03-18T03:07:24.945Z,65.37
2019-03-18T03:09:52.978Z,66.50
2019-03-18T03:12:20.974Z,66.40
2019-03-18T03:14:48.932Z,65.80
2019-03-18T03:17:21.226Z,65.40
2019-03-18T03:19:46.658Z,65.77
2019-03-18T03:22:14.721Z,66.30
2019-03-18T03:24:42.791Z,66.37
2019-03-18T03:27:10.850Z,65.70
2019-03-18T03:29:38.929Z,65.40
2019-03-18T03:32:06.970Z,65.53
2019-03-18T03:34:34.988Z,65.10
2019-03-18T03:37:03.030Z,65.67
2019-03-18T03:39:31.006Z,65.43
2019-03-18T03:41:58.979Z,66.17
2019-03-18T03:44:27.152Z,65.40
2019-03-18T03:46:55.214Z,65.80
2019-03-18T03:49:23.282Z,65.30
2019-03-18T03:51:51.245Z,65.80
2019-03-18T03:54:19.245Z,66.17
2019-03-18T03:56:47.207Z,65.67
2019-03-18T03:59:16.079Z,65.67
2019-03-18T04:01:44.198Z,65.33
2019-03-18T04:04:12.119Z,66.30
2019-03-18T04:06:40.106Z,65.67
2019-03-18T04:09:08.016Z,65.97
2019-03-18T04:11:36.034Z,65.90
2019-03-18T04:14:04.113Z,65.00
2019-03-18T04:16:32.174Z,66.40
2019-03-18T04:19:00.243Z,65.87
2019-03-18T04:21:28.230Z,65.30
2019-03-18T04:23:56.292Z,65.40
2019-03-18T04:26:24.380Z,65.70
2019-03-18T04:28:52.423Z,65.37
2019-03-18T04:31:20.401Z,65.07
2019-03-18T04:33:48.887Z,65.70
2019-03-18T04:36:16.968Z,65.37
2019-03-18T04:38:45.009Z,65.57
2019-03-18T04:41:13.010Z,66.03
2019-03-18T04:43:41.056Z,65.87
2019-03-18T04:46:09.048Z,65.63
2019-03-18T04:48:37.106Z,66.33
2019-03-18T04:51:05.215Z,65.97
2019-03-18T04:53:33.229Z,65.83
2019-03-18T04:56:01.217Z,67.37
2019-03-18T04:58:29.277Z,66.03
2019-03-18T05:00:57.257Z,66.50
2019-03-18T05:03:25.422Z,65.50
2019-03-18T05:05:53.387Z,65.20
2019-03-18T05:08:21.376Z,66.20
2019-03-18T05:10:49.376Z,66.90
2019-03-18T05:13:17.725Z,68.10
2019-03-18T05:15:45.677Z,66.27
2019-03-18T05:18:13.663Z,65.80
2019-03-18T05:20:41.763Z,67.37
2019-03-18T05:23:09.841Z,66.63
2019-03-18T05:25:37.854Z,67.63
2019-03-18T05:28:05.826Z,66.47
2019-03-18T05:30:33.813Z,66.50
2019-03-18T05:33:01.885Z,67.70
2019-03-18T05:35:29.854Z,67.17
2019-03-18T05:37:57.937Z,66.97
2019-03-18T05:40:26.087Z,65.77
2019-03-18T05:42:54.064Z,66.23
2019-03-18T05:45:22.015Z,66.20
2019-03-18T05:47:50.287Z,66.20
2019-03-18T05:50:18.269Z,66.07
2019-03-18T05:52:46.233Z,65.90
2019-03-18T05:55:14.258Z,65.67
2019-03-18T05:57:42.278Z,65.27
2019-03-18T06:00:10.765Z,67.10
2019-03-18T06:02:38.859Z,66.90
2019-03-18T06:05:06.921Z,66.50
2019-03-18T06:07:34.897Z,67.27
2019-03-18T06:10:02.990Z,65.57
2019-03-18T06:12:31.038Z,66.10
2019-03-18T06:14:58.984Z,66.73
2019-03-18T06:17:26.935Z,65.67
2019-03-18T06:19:55.221Z,67.90
2019-03-18T06:22:23.201Z,66.87
2019-03-18T06:24:51.266Z,66.80
2019-03-18T06:27:19.264Z,66.00
2019-03-18T06:29:47.296Z,67.20
2019-03-18T06:32:15.273Z,66.57
2019-03-18T06:34:43.260Z,66.20
2019-03-18T06:37:11.228Z,67.50
2019-03-18T06:39:39.270Z,66.57
2019-03-18T06:42:07.276Z,66.27
2019-03-18T06:44:35.361Z,66.87
2019-03-18T06:47:03.421Z,66.43
2019-03-18T06:49:31.499Z,66.57
2019-03-18T06:51:59.479Z,67.87
2019-03-18T06:54:27.524Z,70.50
2019-03-18T06:56:55.504Z,66.37
2019-03-18T06:59:23.459Z,66.03
2019-03-18T07:01:52.655Z,65.87
2019-03-18T07:04:20.621Z,66.07
2019-03-18T07:06:48.717Z,67.17
2019-03-18T07:09:16.804Z,69.10
2019-03-18T07:11:44.892Z,66.07
2019-03-18T07:14:12.935Z,66.30
2019-03-18T07:16:40.934Z,66.47
2019-03-18T07:19:09.014Z,66.30
2019-03-18T07:21:37.074Z,66.70
2019-03-18T07:24:05.136Z,66.40
2019-03-18T07:26:33.071Z,67.13
2019-03-18T07:29:01.027Z,66.57
2019-03-18T07:31:29.070Z,68.80
2019-03-18T07:33:59.728Z,66.40
2019-03-18T07:36:26.594Z,68.00
2019-03-18T07:38:54.661Z,66.43
2019-03-18T07:41:22.691Z,65.70
2019-03-18T07:43:50.644Z,68.70
2019-03-18T07:46:18.750Z,65.97
2019-03-18T07:48:46.806Z,67.33
2019-03-18T07:51:15.885Z,66.37
2019-03-18T07:53:43.984Z,66.27
2019-03-18T07:56:11.988Z,65.70
2019-03-18T07:58:39.903Z,66.80
2019-03-18T08:01:07.962Z,66.50
2019-03-18T08:03:36.735Z,67.00
2019-03-18T08:06:04.847Z,66.30
2019-03-18T08:08:32.948Z,67.23
2019-03-18T08:11:01.094Z,66.77
2019-03-18T08:13:29.065Z,66.20
2019-03-18T08:15:57.184Z,66.40
2019-03-18T08:18:25.137Z,65.70
2019-03-18T08:20:53.213Z,66.67
2019-03-18T08:23:21.304Z,66.50
2019-03-18T08:25:49.251Z,66.37
2019-03-18T08:28:17.216Z,66.00
2019-03-18T08:30:45.179Z,66.37
2019-03-18T08:33:13.170Z,66.40
2019-03-18T08:35:41.144Z,65.97
2019-03-18T08:38:09.149Z,67.37
2019-03-18T08:40:37.180Z,66.47
2019-03-18T08:43:05.251Z,66.07
2019-03-18T08:45:33.306Z,65.47
2019-03-18T08:48:01.371Z,66.07
2019-03-18T08:50:29.847Z,66.50
2019-03-18T08:52:57.826Z,66.17
2019-03-18T08:55:27.864Z,66.60
2019-03-18T08:57:55.324Z,65.23
2019-03-18T09:00:23.313Z,66.30
2019-03-18T09:02:51.350Z,66.67
2019-03-18T09:05:19.441Z,66.67
2019-03-18T09:07:47.487Z,65.70
2019-03-18T09:10:15.505Z,65.43
2019-03-18T09:12:43.580Z,65.97
2019-03-18T09:15:11.654Z,66.97
2019-03-18T09:17:40.633Z,65.80
2019-03-18T09:20:08.831Z,65.23
2019-03-18T09:22:36.884Z,65.97
2019-03-18T09:25:05.203Z,66.10
2019-03-18T09:27:33.286Z,66.37
2019-03-18T09:30:01.353Z,68.50
2019-03-18T09:32:30.025Z,67.63
2019-03-18T09:34:58.081Z,65.67
2019-03-18T09:37:25.970Z,65.50
2019-03-18T09:39:53.936Z,66.47
2019-03-18T09:42:21.997Z,67.50
2019-03-18T09:44:50.002Z,67.40
2019-03-18T09:47:18.063Z,66.23
2019-03-18T09:49:46.097Z,66.90
2019-03-18T09:52:14.123Z,68.17
2019-03-18T09:54:42.159Z,66.47
2019-03-18T09:57:10.239Z,67.10
2019-03-18T09:59:38.310Z,68.10
2019-03-18T10:02:06.473Z,66.10
2019-03-18T10:04:34.440Z,68.67
2019-03-18T10:07:02.420Z,68.40
2019-03-18T10:09:30.501Z,67.57
2019-03-18T10:11:59.773Z,67.97
2019-03-18T10:14:27.855Z,66.87
2019-03-18T10:17:08.702Z,68.80
2019-03-18T10:19:33.360Z,67.50
2019-03-18T10:21:56.402Z,67.50
2019-03-18T10:24:24.388Z,68.13
2019-03-18T10:26:52.387Z,69.07
2019-03-18T10:29:20.360Z,66.70
2019-03-18T10:31:48.343Z,65.67
2019-03-18T10:34:16.416Z,65.80
2019-03-18T10:36:44.414Z,67.07
2019-03-18T10:39:12.459Z,66.40
2019-03-18T10:41:40.532Z,70.00
2019-03-18T10:44:08.598Z,66.90
2019-03-18T10:46:36.725Z,66.40
2019-03-18T10:49:04.785Z,66.00
2019-03-18T10:51:32.880Z,66.83
2019-03-18T10:54:00.878Z,66.50
2019-03-18T10:56:28.926Z,70.00
2019-03-18T10:58:57.025Z,69.00
2019-03-18T11:01:24.917Z,66.27
2019-03-18T11:03:52.976Z,66.83
2019-03-18T11:06:20.903Z,66.47
2019-03-18T11:08:49.431Z,66.43
2019-03-18T11:11:18.946Z,67.43
2019-03-18T11:13:46.912Z,65.67
2019-03-18T11:16:14.944Z,66.93
2019-03-18T11:18:43.901Z,66.30
2019-03-18T11:21:11.949Z,65.67
2019-03-18T11:23:39.835Z,66.97
2019-03-18T11:26:07.811Z,68.13
2019-03-18T11:28:35.884Z,67.07
2019-03-18T11:31:03.961Z,67.53
2019-03-18T11:33:31.925Z,72.20
2019-03-18T11:35:59.827Z,68.37
2019-03-18T11:38:27.861Z,69.80
2019-03-18T11:40:55.845Z,68.23
2019-03-18T11:43:23.814Z,69.67
2019-03-18T11:45:51.833Z,68.57
2019-03-18T11:48:19.828Z,67.37
2019-03-18T11:50:47.969Z,67.50
2019-03-18T11:53:15.948Z,66.93
2019-03-18T11:55:44.030Z,68.10
2019-03-18T11:58:12.091Z,67.87
2019-03-18T12:00:40.172Z,68.00
2019-03-18T12:03:08.243Z,67.80
2019-03-18T12:05:36.315Z,68.43
2019-03-18T12:08:04.389Z,67.90
2019-03-18T12:10:32.450Z,68.27
2019-03-18T12:13:00.545Z,68.97
2019-03-18T12:15:28.657Z,66.13
2019-03-18T12:17:56.638Z,68.93
2019-03-18T12:20:25.752Z,67.43
2019-03-18T12:22:54.103Z,66.87
2019-03-18T12:25:22.092Z,68.07
2019-03-18T12:27:50.188Z,68.70
2019-03-18T12:30:18.127Z,73.93
2019-03-18T12:32:46.198Z,74.57
2019-03-18T12:35:14.219Z,70.23
2019-03-18T12:37:42.306Z,67.03
2019-03-18T12:40:10.806Z,68.70
2019-03-18T12:42:38.870Z,66.97
2019-03-18T12:45:08.813Z,66.40
2019-03-18T12:47:36.987Z,67.17
2019-03-18T12:50:05.694Z,67.70
2019-03-18T12:52:33.879Z,67.60
2019-03-18T12:55:01.942Z,67.17
2019-03-18T12:57:29.991Z,66.57
2019-03-18T12:59:58.130Z,67.10
2019-03-18T13:02:26.161Z,67.27
2019-03-18T13:04:54.207Z,67.43
2019-03-18T13:07:22.309Z,65.97
2019-03-18T13:09:50.336Z,67.40
2019-03-18T13:12:18.231Z,66.97
2019-03-18T13:14:46.253Z,67.10
2019-03-18T13:17:14.468Z,66.33
2019-03-18T13:19:42.538Z,68.67
2019-03-18T13:22:10.645Z,67.97
2019-03-18T13:24:38.699Z,67.80
2019-03-18T13:27:06.764Z,67.70
2019-03-18T13:29:34.839Z,67.37
2019-03-18T13:32:02.981Z,70.77
2019-03-18T13:34:30.958Z,68.33
2019-03-18T13:37:00.482Z,73.97
2019-03-18T13:39:28.545Z,71.90
2019-03-18T13:41:56.618Z,66.67
2019-03-18T13:44:24.582Z,67.47
2019-03-18T13:46:52.662Z,67.90
2019-03-18T13:49:20.672Z,67.97
2019-03-18T13:51:48.714Z,68.57
2019-03-18T13:54:16.775Z,67.90
2019-03-18T13:56:44.864Z,81.07
2019-03-18T13:59:12.916Z,69.60
2019-03-18T14:01:41.025Z,67.07
2019-03-18T14:04:09.097Z,68.20
2019-03-18T14:06:37.098Z,68.23
2019-03-18T14:09:06.761Z,67.37
2019-03-18T14:11:34.768Z,67.27
2019-03-18T14:14:02.888Z,74.23
2019-03-18T14:16:30.965Z,68.93
2019-03-18T14:18:59.049Z,67.00
2019-03-18T14:21:33.169Z,67.40
2019-03-18T14:23:56.944Z,70.20
2019-03-18T14:26:24.846Z,66.47
2019-03-18T14:28:52.931Z,66.97
2019-03-18T14:31:20.907Z,68.67
2019-03-18T14:33:49.008Z,67.53
2019-03-18T14:36:16.992Z,66.97
2019-03-18T14:38:45.074Z,67.70
2019-03-18T14:41:13.506Z,67.47
2019-03-18T14:43:41.521Z,67.80
2019-03-18T14:46:09.496Z,68.40
2019-03-18T14:48:37.541Z,68.00
2019-03-18T14:51:05.426Z,67.60
2019-03-18T14:53:33.404Z,67.67
2019-03-18T14:56:01.453Z,66.90
2019-03-18T14:58:29.536Z,68.40
2019-03-18T15:00:57.630Z,67.87
2019-03-18T15:03:25.708Z,67.50
2019-03-18T15:05:53.782Z,67.70
2019-03-18T15:08:21.849Z,71.37
2019-03-18T15:10:49.922Z,70.80
2019-03-18T15:13:30.003Z,67.07
2019-03-18T15:15:47.581Z,69.10
2019-03-18T15:18:15.584Z,68.57
2019-03-18T15:20:43.499Z,72.17
2019-03-18T15:23:11.520Z,70.27
2019-03-18T15:25:39.507Z,67.90
2019-03-18T15:28:07.554Z,67.90
2019-03-18T15:30:35.959Z,68.80
2019-03-18T15:33:04.031Z,68.20
2019-03-18T15:35:32.357Z,68.57
2019-03-18T15:38:00.357Z,67.90
2019-03-18T15:40:28.351Z,70.37
2019-03-18T15:42:56.416Z,72.87
2019-03-18T15:45:24.528Z,69.50
2019-03-18T15:47:52.446Z,66.90
2019-03-18T15:50:20.439Z,66.60
2019-03-18T15:52:48.482Z,67.67
2019-03-18T15:55:16.771Z,68.07
2019-03-18T15:57:44.935Z,69.50
2019-03-18T16:00:13.893Z,67.90
2019-03-18T16:02:41.908Z,70.27
2019-03-18T16:05:10.061Z,70.40
2019-03-18T16:07:38.076Z,67.43
2019-03-18T16:10:06.196Z,68.90
2019-03-18T16:12:34.211Z,69.30
2019-03-18T16:15:02.183Z,71.27
2019-03-18T16:17:30.230Z,68.97
2019-03-18T16:19:58.188Z,68.93
2019-03-18T16:22:26.164Z,67.27
2019-03-18T16:24:54.147Z,67.50
2019-03-18T16:27:22.210Z,67.70
2019-03-18T16:29:50.301Z,67.70
2019-03-18T16:32:18.361Z,68.90
2019-03-18T16:34:46.454Z,68.97
2019-03-18T16:37:14.486Z,67.97
2019-03-18T16:39:42.459Z,67.40
2019-03-18T16:42:10.444Z,69.20
2019-03-18T16:44:38.482Z,68.60
2019-03-18T16:47:06.485Z,68.60
2019-03-18T16:49:34.560Z,68.43
2019-03-18T16:52:02.644Z,68.30
2019-03-18T16:54:30.703Z,73.50
2019-03-18T16:56:58.770Z,69.03
2019-03-18T16:59:26.910Z,69.97
2019-03-18T17:01:54.903Z,67.93
2019-03-18T17:04:22.919Z,74.23
2019-03-18T17:06:50.936Z,71.93
2019-03-18T17:09:18.941Z,74.80
2019-03-18T17:11:46.952Z,71.53
2019-03-18T17:14:14.867Z,70.20
2019-03-18T17:16:42.839Z,68.97
2019-03-18T17:19:10.889Z,69.10
2019-03-18T17:21:38.986Z,69.90
2019-03-18T17:24:07.028Z,70.90
2019-03-18T17:26:35.051Z,71.00
2019-03-18T17:29:03.063Z,71.10
2019-03-18T17:31:30.989Z,68.83
2019-03-18T17:33:59.022Z,71.50
2019-03-18T17:36:26.974Z,71.50
2019-03-18T17:38:55.051Z,69.87
2019-03-18T17:41:23.098Z,68.50
2019-03-18T17:43:51.104Z,72.83
2019-03-18T17:46:19.102Z,67.80
2019-03-18T17:48:47.125Z,83.00
2019-03-18T17:51:15.411Z,70.37
2019-03-18T17:53:43.455Z,71.07
2019-03-18T17:56:11.420Z,71.70
2019-03-18T17:58:39.497Z,73.13
2019-03-18T18:01:07.408Z,72.73
2019-03-18T18:03:35.410Z,69.47
2019-03-18T18:06:03.361Z,74.60
2019-03-18T18:08:31.466Z,73.83
2019-03-18T18:10:59.431Z,73.20
2019-03-18T18:13:27.393Z,75.67
2019-03-18T18:15:55.530Z,76.00
2019-03-18T18:18:23.595Z,70.67
2019-03-18T18:20:51.646Z,71.47
2019-03-18T18:23:19.724Z,72.87
2019-03-18T18:25:47.796Z,76.63
2019-03-18T18:28:16.347Z,73.10
2019-03-18T18:30:44.770Z,74.27
2019-03-18T18:33:12.860Z,79.67
2019-03-18T18:35:40.907Z,70.80
2019-03-18T18:38:09.070Z,72.03
2019-03-18T18:40:37.035Z,69.80
2019-03-18T18:43:05.043Z,69.00
2019-03-18T18:45:33.137Z,71.97
2019-03-18T18:48:01.243Z,71.00
2019-03-18T18:50:30.231Z,71.37
2019-03-18T18:52:58.224Z,72.30
2019-03-18T18:55:26.290Z,76.17
2019-03-18T18:57:54.396Z,72.03
2019-03-18T19:00:22.796Z,70.60
2019-03-18T19:02:50.813Z,72.00
2019-03-18T19:05:18.931Z,72.80
2019-03-18T19:07:46.964Z,72.83
2019-03-18T19:10:16.295Z,76.30
2019-03-18T19:12:44.612Z,75.00
2019-03-18T19:15:14.219Z,85.00
2019-03-18T19:17:42.198Z,79.63
2019-03-18T19:20:11.201Z,76.20
2019-03-18T19:22:39.160Z,72.87
2019-03-18T19:25:08.007Z,73.90
2019-03-18T19:27:36.041Z,74.10
2019-03-18T19:30:06.064Z,74.63
2019-03-18T19:32:34.077Z,73.90
2019-03-18T19:35:02.122Z,75.07
2019-03-18T19:37:30.185Z,76.53
2019-03-18T19:39:58.258Z,82.40
2019-03-18T19:42:26.369Z,86.37
2019-03-18T19:44:54.413Z,78.70
2019-03-18T19:47:25.262Z,84.10
2019-03-18T19:49:53.340Z,88.43
2019-03-18T19:52:21.369Z,85.17
2019-03-18T19:54:49.412Z,87.13
2019-03-18T19:57:17.372Z,81.13
2019-03-18T19:59:45.777Z,78.17
2019-03-18T20:02:13.682Z,74.17
2019-03-18T20:04:41.732Z,72.33
2019-03-18T20:07:09.638Z,76.47
2019-03-18T20:09:37.752Z,76.17
2019-03-18T20:12:05.728Z,77.07
2019-03-18T20:14:34.807Z,72.80
2019-03-18T20:17:02.843Z,77.63
2019-03-18T20:19:30.988Z,87.57
2019-03-18T20:21:58.984Z,98.90
2019-03-18T20:24:26.945Z,106.80
2019-03-18T20:26:55.068Z,97.07
2019-03-18T20:29:23.196Z,88.50
2019-03-18T20:31:51.226Z,80.17
2019-03-18T20:34:21.402Z,75.00
2019-03-18T20:36:49.252Z,75.97
2019-03-18T20:39:17.236Z,75.20
2019-03-18T20:41:45.283Z,81.17
2019-03-18T20:44:13.283Z,111.27
2019-03-18T20:46:42.435Z,83.30
2019-03-18T20:49:10.481Z,73.87
2019-03-18T20:51:38.726Z,79.27
2019-03-18T20:54:12.104Z,79.00
2019-03-18T20:56:36.580Z,77.07
2019-03-18T20:59:04.557Z,74.60
2019-03-18T21:01:32.462Z,72.13
2019-03-18T21:04:00.505Z,74.60
2019-03-18T21:06:28.480Z,72.40
2019-03-18T21:08:56.802Z,73.30
2019-03-18T21:11:24.866Z,73.40
2019-03-18T21:13:57.158Z,81.27
2019-03-18T21:16:22.745Z,75.53
2019-03-18T21:18:50.774Z,73.93
2019-03-18T21:21:18.835Z,75.57
2019-03-18T21:23:46.959Z,71.63
2019-03-18T21:26:14.849Z,75.37
2019-03-18T21:28:42.922Z,74.30
2019-03-18T21:31:11.276Z,77.10
2019-03-18T21:33:39.325Z,77.20
2019-03-18T21:36:07.432Z,73.67
2019-03-18T21:38:35.683Z,76.07
2019-03-18T21:41:03.812Z,76.37
2019-03-18T21:43:31.809Z,72.87
2019-03-18T21:45:59.810Z,73.23
2019-03-18T21:48:27.814Z,73.57
2019-03-18T21:50:55.808Z,73.60
2019-03-18T21:53:23.902Z,77.20
2019-03-18T21:55:51.889Z,73.70
2019-03-18T21:58:19.871Z,75.60
2019-03-18T22:00:47.893Z,73.40
2019-03-18T22:03:15.895Z,75.10
2019-03-18T22:05:43.927Z,75.93
2019-03-18T22:08:12.028Z,79.17
2019-03-18T22:10:40.004Z,79.40
2019-03-18T22:13:07.986Z,78.07
2019-03-18T22:15:36.049Z,78.17
2019-03-18T22:18:04.189Z,75.67
2019-03-18T22:20:32.218Z,76.13
2019-03-18T22:23:00.296Z,77.00
2019-03-18T22:25:28.323Z,77.90
2019-03-18T22:27:56.214Z,81.20
2019-03-18T22:30:24.196Z,77.27
2019-03-18T22:32:52.195Z,73.93
2019-03-18T22:35:20.197Z,73.90
2019-03-18T22:37:48.183Z,72.63
2019-03-18T22:40:16.306Z,73.07
2019-03-18T22:42:44.294Z,72.40
2019-03-18T22:45:12.360Z,73.50
2019-03-18T22:47:40.326Z,72.47
2019-03-18T22:50:08.473Z,70.40
2019-03-18T22:52:36.454Z,70.67
2019-03-18T22:55:05.209Z,72.47
2019-03-18T22:57:33.112Z,70.10
2019-03-18T23:00:01.178Z,72.03
2019-03-18T23:02:29.231Z,73.10
2019-03-18T23:04:57.161Z,70.10
2019-03-18T23:07:25.030Z,68.47
2019-03-18T23:09:53.329Z,70.90
2019-03-18T23:12:21.204Z,68.57
2019-03-18T23:14:49.187Z,74.37
2019-03-18T23:17:17.479Z,76.67
2019-03-18T23:19:45.442Z,125.40
2019-03-18T23:22:13.393Z,76.30
2019-03-18T23:24:43.336Z,76.17
2019-03-18T23:27:11.158Z,72.97
2019-03-18T23:29:39.137Z,76.23
2019-03-18T23:32:07.248Z,74.17
2019-03-18T23:34:35.281Z,82.17
2019-03-18T23:37:03.297Z,73.40
2019-03-18T23:39:31.289Z,71.70
2019-03-18T23:41:59.263Z,74.40
2019-03-18T23:44:28.395Z,72.87
2019-03-18T23:46:56.680Z,75.97
2019-03-18T23:49:24.652Z,97.93
2019-03-18T23:51:52.546Z,101.93
2019-03-18T23:54:21.773Z,123.13
2019-03-18T23:56:49.730Z,75.57
2019-03-18T23:59:17.782Z,94.10
